createdAt,value
2019-05-05T00:00:39.735Z,5.17
2019-05-05T00:01:45.025Z,5.15
2019-05-05T00:02:48.033Z,5.14
2019-05-05T00:03:52.186Z,5.13
2019-05-05T00:04:56.358Z,5.12
2019-05-05T00:06:00.523Z,5.11
2019-05-05T00:07:04.683Z,5.09
2019-05-05T00:08:08.829Z,5.08
2019-05-05T00:09:14.653Z,5.05
2019-05-05T00:10:17.280Z,5.02
2019-05-05T00:11:21.473Z,4.98
2019-05-05T00:12:25.575Z,4.94
2019-05-05T00:13:29.743Z,4.90
2019-05-05T00:14:35.100Z,4.87
2019-05-05T00:15:38.020Z,4.84
2019-05-05T00:16:44.369Z,4.83
2019-05-05T00:17:46.314Z,4.83
2019-05-05T00:18:50.450Z,4.81
2019-05-05T00:19:54.998Z,4.80
2019-05-05T00:20:58.782Z,4.79
2019-05-05T00:22:04.547Z,4.77
2019-05-05T00:23:07.087Z,4.71
2019-05-05T00:24:11.199Z,4.68
2019-05-05T00:25:15.251Z,4.65
2019-05-05T00:26:19.430Z,4.62
2019-05-05T00:27:25.431Z,4.60
2019-05-05T00:28:27.841Z,4.60
2019-05-05T00:29:32.018Z,4.59
2019-05-05T00:30:36.138Z,4.57
2019-05-05T00:31:40.315Z,4.53
2019-05-05T00:32:44.527Z,4.50
2019-05-05T00:33:48.580Z,4.49
2019-05-05T00:34:54.994Z,4.48
2019-05-05T00:35:56.848Z,4.48
2019-05-05T00:37:01.092Z,4.49
2019-05-05T00:38:05.257Z,4.50
2019-05-05T00:39:09.340Z,4.50
2019-05-05T00:40:14.211Z,4.49
2019-05-05T00:41:17.656Z,4.49
2019-05-05T00:42:21.815Z,4.48
2019-05-05T00:43:25.956Z,4.44
2019-05-05T00:44:30.109Z,4.42
2019-05-05T00:45:34.520Z,4.40
2019-05-05T00:46:38.322Z,4.38
2019-05-05T00:47:42.419Z,4.38
2019-05-05T00:48:46.584Z,4.37
2019-05-05T00:49:50.612Z,4.36
2019-05-05T00:50:55.617Z,4.35
2019-05-05T00:51:58.982Z,4.31
2019-05-05T00:53:05.236Z,4.23
2019-05-05T00:54:07.244Z,4.14
2019-05-05T00:55:11.345Z,4.09
2019-05-05T00:56:15.542Z,4.05
2019-05-05T00:57:19.675Z,4.03
2019-05-05T00:58:24.748Z,4.02
2019-05-05T00:59:27.928Z,4.01
2019-05-05T01:00:32.055Z,3.98
2019-05-05T01:01:36.220Z,3.96
2019-05-05T01:02:40.383Z,3.94
2019-05-05T01:03:44.510Z,3.91
2019-05-05T01:04:48.670Z,3.87
2019-05-05T01:05:52.854Z,3.84
2019-05-05T01:06:56.987Z,3.79
2019-05-05T01:08:01.179Z,3.72
2019-05-05T01:09:05.284Z,3.66
2019-05-05T01:10:09.360Z,3.61
2019-05-05T01:11:14.508Z,3.55
2019-05-05T01:12:17.713Z,3.50
2019-05-05T01:13:21.898Z,3.48
2019-05-05T01:14:26.048Z,3.48
2019-05-05T01:15:30.076Z,3.51
2019-05-05T01:16:35.149Z,3.54
2019-05-05T01:17:38.576Z,3.57
2019-05-05T01:18:44.895Z,3.59
2019-05-05T01:20:00.240Z,3.60
2019-05-05T01:20:51.006Z,3.60
2019-05-05T01:21:55.171Z,3.61
2019-05-05T01:22:59.299Z,3.61
2019-05-05T01:24:05.168Z,3.61
2019-05-05T01:25:07.616Z,3.60
2019-05-05T01:26:11.786Z,3.58
2019-05-05T01:27:15.998Z,3.56
2019-05-05T01:28:20.111Z,3.54
2019-05-05T01:29:25.278Z,3.55
2019-05-05T01:30:28.450Z,3.57
2019-05-05T01:31:34.537Z,3.60
2019-05-05T01:32:36.733Z,3.62
2019-05-05T01:33:40.913Z,3.63
2019-05-05T01:34:45.101Z,3.63
2019-05-05T01:35:49.235Z,3.63
2019-05-05T01:36:54.377Z,3.63
2019-05-05T01:37:57.513Z,3.62
2019-05-05T01:39:01.716Z,3.63
2019-05-05T01:40:05.852Z,3.63
2019-05-05T01:41:10.011Z,3.62
2019-05-05T01:42:14.399Z,3.60
2019-05-05T01:43:18.322Z,3.57
2019-05-05T01:44:24.542Z,3.55
2019-05-05T01:45:26.629Z,3.54
2019-05-05T01:46:30.850Z,3.53
2019-05-05T01:47:34.960Z,3.55
2019-05-05T01:48:39.086Z,3.57
2019-05-05T01:49:45.225Z,3.56
2019-05-05T01:50:47.372Z,3.56
2019-05-05T01:51:51.419Z,3.56
2019-05-05T01:52:55.703Z,3.56
2019-05-05T01:53:59.814Z,3.56
2019-05-05T01:55:05.267Z,3.56
2019-05-05T01:56:08.236Z,3.56
2019-05-05T01:57:14.589Z,3.55
2019-05-05T01:58:16.496Z,3.53
2019-05-05T01:59:20.680Z,3.51
2019-05-05T02:00:25.455Z,3.51
2019-05-05T02:01:28.926Z,3.51
2019-05-05T02:02:34.269Z,3.52
2019-05-05T02:03:37.300Z,3.52
2019-05-05T02:04:41.466Z,3.51
2019-05-05T02:05:45.721Z,3.50
2019-05-05T02:06:49.861Z,3.50
2019-05-05T02:07:55.315Z,3.48
2019-05-05T02:08:58.148Z,3.44
2019-05-05T02:10:05.739Z,3.40
2019-05-05T02:11:06.401Z,3.38
2019-05-05T02:12:10.535Z,3.37
2019-05-05T02:13:16.086Z,3.36
2019-05-05T02:14:18.910Z,3.34
2019-05-05T02:15:24.971Z,3.32
2019-05-05T02:16:27.182Z,3.29
2019-05-05T02:17:31.338Z,3.24
2019-05-05T02:18:35.494Z,3.22
2019-05-05T02:19:39.617Z,3.21
2019-05-05T02:20:45.056Z,3.20
2019-05-05T02:21:47.904Z,3.19
2019-05-05T02:22:52.156Z,3.13
2019-05-05T02:23:56.263Z,3.03
2019-05-05T02:25:00.285Z,2.94
2019-05-05T02:26:04.719Z,2.86
2019-05-05T02:27:08.591Z,2.80
2019-05-05T02:28:14.776Z,2.79
2019-05-05T02:29:16.771Z,2.80
2019-05-05T02:30:20.963Z,2.83
2019-05-05T02:31:25.661Z,2.84
2019-05-05T02:32:29.277Z,2.87
2019-05-05T02:33:35.378Z,2.92
2019-05-05T02:34:37.566Z,2.95
2019-05-05T02:35:41.727Z,2.97
2019-05-05T02:36:46.098Z,2.98
2019-05-05T02:37:50.014Z,2.99
2019-05-05T02:38:56.693Z,3.01
2019-05-05T02:40:02.984Z,3.03
2019-05-05T02:41:05.052Z,3.05
2019-05-05T02:42:06.574Z,3.06
2019-05-05T02:43:10.734Z,3.07
2019-05-05T02:44:15.614Z,3.08
2019-05-05T02:45:18.985Z,3.08
2019-05-05T02:46:25.445Z,3.08
2019-05-05T02:47:27.276Z,3.10
2019-05-05T02:48:31.477Z,3.12
2019-05-05T02:49:35.516Z,3.16
2019-05-05T02:50:54.962Z,3.19
2019-05-05T02:51:44.743Z,3.22
2019-05-05T02:52:48.059Z,3.24
2019-05-05T02:53:53.716Z,3.27
2019-05-05T02:54:56.485Z,3.28
2019-05-05T02:56:00.627Z,3.29
2019-05-05T02:57:04.878Z,3.31
2019-05-05T02:58:09.002Z,3.32
2019-05-05T02:59:14.712Z,3.33
2019-05-05T03:00:17.450Z,3.35
2019-05-05T03:01:21.562Z,3.35
2019-05-05T03:02:25.721Z,3.35
2019-05-05T03:03:29.889Z,3.33
2019-05-05T03:04:34.045Z,3.31
2019-05-05T03:05:38.160Z,3.27
2019-05-05T03:06:43.709Z,3.22
2019-05-05T03:07:46.444Z,3.18
2019-05-05T03:08:50.670Z,3.16
2019-05-05T03:09:54.789Z,3.09
2019-05-05T03:10:58.940Z,3.02
2019-05-05T03:12:04.748Z,2.96
2019-05-05T03:13:07.192Z,2.93
2019-05-05T03:14:11.326Z,2.90
2019-05-05T03:15:15.379Z,2.89
2019-05-05T03:16:19.505Z,2.89
2019-05-05T03:17:23.714Z,2.88
2019-05-05T03:18:27.742Z,2.89
2019-05-05T03:19:33.841Z,2.90
2019-05-05T03:20:36.130Z,2.92
2019-05-05T03:21:40.324Z,2.94
2019-05-05T03:22:44.559Z,2.96
2019-05-05T03:23:48.633Z,2.95
2019-05-05T03:24:54.104Z,2.87
2019-05-05T03:25:57.014Z,2.78
2019-05-05T03:27:01.136Z,2.70
2019-05-05T03:28:05.249Z,2.64
2019-05-05T03:29:09.365Z,2.56
2019-05-05T03:30:15.415Z,2.50
2019-05-05T03:31:17.715Z,2.45
2019-05-05T03:32:25.034Z,2.40
2019-05-05T03:33:28.915Z,2.37
2019-05-05T03:34:34.234Z,2.35
2019-05-05T03:35:36.254Z,2.35
2019-05-05T03:36:40.398Z,2.35
2019-05-05T03:37:44.693Z,2.34
2019-05-05T03:38:48.665Z,2.32
2019-05-05T03:39:53.698Z,2.32
2019-05-05T03:40:56.951Z,2.32
2019-05-05T03:42:01.089Z,2.32
2019-05-05T03:43:05.143Z,2.30
2019-05-05T03:44:09.317Z,2.26
2019-05-05T03:45:14.499Z,2.21
2019-05-05T03:46:17.573Z,2.18
2019-05-05T03:47:21.838Z,2.13
2019-05-05T03:48:25.923Z,2.07
2019-05-05T03:49:30.050Z,2.01
2019-05-05T03:50:34.222Z,1.95
2019-05-05T03:51:38.439Z,1.93
2019-05-05T03:52:43.832Z,1.95
2019-05-05T03:53:46.674Z,2.01
2019-05-05T03:54:50.758Z,2.08
2019-05-05T03:55:55.043Z,2.16
2019-05-05T03:56:59.240Z,2.25
2019-05-05T03:58:04.099Z,2.36
2019-05-05T03:59:07.449Z,2.42
2019-05-05T04:00:11.575Z,2.45
2019-05-05T04:01:15.796Z,2.45
2019-05-05T04:02:19.911Z,2.45
2019-05-05T04:03:24.142Z,2.48
2019-05-05T04:04:28.257Z,2.54
2019-05-05T04:05:34.028Z,2.61
2019-05-05T04:06:36.589Z,2.69
2019-05-05T04:07:40.744Z,2.78
2019-05-05T04:08:44.950Z,2.86
2019-05-05T04:09:49.143Z,2.92
2019-05-05T04:10:54.613Z,2.97
2019-05-05T04:11:57.348Z,3.01
2019-05-05T04:13:01.526Z,3.03
2019-05-05T04:14:05.681Z,3.06
2019-05-05T04:15:09.845Z,3.08
2019-05-05T04:16:13.977Z,3.09
2019-05-05T04:17:18.109Z,3.10
2019-05-05T04:18:23.825Z,3.11
2019-05-05T04:19:26.355Z,3.15
2019-05-05T04:20:30.485Z,3.18
2019-05-05T04:21:36.792Z,3.22
2019-05-05T04:22:38.757Z,3.21
2019-05-05T04:23:44.196Z,3.12
2019-05-05T04:24:47.080Z,3.05
2019-05-05T04:25:51.127Z,3.00
2019-05-05T04:26:55.352Z,2.97
2019-05-05T04:27:59.681Z,2.98
2019-05-05T04:29:05.370Z,3.04
2019-05-05T04:30:07.938Z,3.12
2019-05-05T04:31:13.562Z,3.17
2019-05-05T04:32:16.323Z,3.15
2019-05-05T04:33:20.461Z,3.12
2019-05-05T04:34:24.629Z,3.09
2019-05-05T04:35:28.787Z,3.06
2019-05-05T04:36:34.041Z,3.04
2019-05-05T04:37:37.087Z,3.04
2019-05-05T04:38:41.371Z,3.09
2019-05-05T04:39:45.449Z,3.16
2019-05-05T04:40:49.607Z,3.24
2019-05-05T04:41:54.542Z,3.32
2019-05-05T04:42:57.766Z,3.41
2019-05-05T04:44:03.968Z,3.51
2019-05-05T04:45:06.202Z,3.59
2019-05-05T04:46:10.401Z,3.66
2019-05-05T04:47:14.601Z,3.71
2019-05-05T04:48:18.682Z,3.78
2019-05-05T04:49:23.471Z,3.82
2019-05-05T04:50:26.858Z,3.87
2019-05-05T04:51:43.454Z,3.93
2019-05-05T04:52:35.313Z,3.98
2019-05-05T04:53:39.397Z,4.04
2019-05-05T04:54:43.963Z,4.09
2019-05-05T04:55:47.722Z,4.12
2019-05-05T04:56:53.859Z,4.16
2019-05-05T04:57:56.026Z,4.21
2019-05-05T04:59:00.212Z,4.22
2019-05-05T05:00:04.417Z,4.21
2019-05-05T05:01:08.565Z,4.20
2019-05-05T05:02:14.421Z,4.19
2019-05-05T05:03:16.859Z,4.21
2019-05-05T05:04:21.068Z,4.23
2019-05-05T05:05:25.191Z,4.25
2019-05-05T05:06:29.342Z,4.25
2019-05-05T05:07:34.499Z,4.25
2019-05-05T05:08:37.670Z,4.22
2019-05-05T05:09:43.441Z,4.15
2019-05-05T05:10:45.986Z,4.06
2019-05-05T05:11:50.017Z,4.02
2019-05-05T05:12:54.243Z,4.01
2019-05-05T05:13:58.303Z,4.03
2019-05-05T05:15:04.324Z,4.06
2019-05-05T05:16:06.666Z,4.09
2019-05-05T05:17:10.886Z,4.11
2019-05-05T05:18:15.110Z,4.14
2019-05-05T05:19:19.208Z,4.18
2019-05-05T05:20:24.694Z,4.20
2019-05-05T05:21:27.559Z,4.22
2019-05-05T05:22:33.428Z,4.24
2019-05-05T05:23:35.870Z,4.25
2019-05-05T05:24:40.036Z,4.26
2019-05-05T05:25:44.167Z,4.27
2019-05-05T05:26:48.371Z,4.27
2019-05-05T05:27:53.663Z,4.29
2019-05-05T05:28:56.674Z,4.29
2019-05-05T05:30:00.870Z,4.25
2019-05-05T05:31:04.981Z,4.19
2019-05-05T05:32:09.274Z,4.16
2019-05-05T05:33:14.904Z,4.18
2019-05-05T05:34:17.442Z,4.24
2019-05-05T05:35:21.673Z,4.32
2019-05-05T05:36:25.755Z,4.41
2019-05-05T05:37:29.989Z,4.51
2019-05-05T05:38:34.773Z,4.59
2019-05-05T05:39:38.370Z,4.68
2019-05-05T05:40:44.311Z,4.75
2019-05-05T05:41:46.744Z,4.82
2019-05-05T05:42:50.775Z,4.89
2019-05-05T05:43:55.018Z,4.95
2019-05-05T05:44:59.269Z,5.02
2019-05-05T05:46:04.383Z,5.08
2019-05-05T05:47:07.564Z,5.15
2019-05-05T05:48:11.722Z,5.20
2019-05-05T05:49:15.921Z,5.25
2019-05-05T05:50:20.165Z,5.30
2019-05-05T05:51:24.283Z,5.35
2019-05-05T05:52:28.433Z,5.42
2019-05-05T05:53:34.734Z,5.59
2019-05-05T05:54:36.803Z,5.81
2019-05-05T05:55:40.980Z,5.94
2019-05-05T05:56:45.134Z,6.09
2019-05-05T05:57:49.298Z,6.18
2019-05-05T05:58:54.239Z,6.22
2019-05-05T05:59:57.671Z,6.23
2019-05-05T06:01:04.856Z,6.23
2019-05-05T06:02:12.249Z,6.20
2019-05-05T06:03:14.095Z,6.18
2019-05-05T06:04:16.490Z,6.18
2019-05-05T06:05:20.909Z,6.18
2019-05-05T06:06:24.982Z,6.18
2019-05-05T06:07:29.389Z,6.19
2019-05-05T06:08:34.692Z,6.21
2019-05-05T06:09:37.924Z,6.23
2019-05-05T06:10:44.088Z,6.25
2019-05-05T06:11:46.283Z,6.27
2019-05-05T06:12:50.561Z,6.28
2019-05-05T06:13:54.810Z,6.30
2019-05-05T06:14:59.087Z,6.31
2019-05-05T06:16:04.227Z,6.33
2019-05-05T06:17:07.385Z,6.36
2019-05-05T06:18:13.721Z,6.39
2019-05-05T06:19:16.031Z,6.42
2019-05-05T06:20:20.358Z,6.46
2019-05-05T06:21:24.564Z,6.48
2019-05-05T06:22:31.479Z,6.50
2019-05-05T06:23:34.464Z,6.52
2019-05-05T06:24:37.244Z,6.54
2019-05-05T06:25:41.546Z,6.59
2019-05-05T06:26:45.668Z,6.63
2019-05-05T06:27:49.980Z,6.68
2019-05-05T06:28:54.222Z,6.75
2019-05-05T06:29:58.450Z,6.86
2019-05-05T06:31:04.713Z,7.00
2019-05-05T06:32:07.092Z,7.16
2019-05-05T06:33:13.555Z,7.31
2019-05-05T06:34:18.604Z,7.45
2019-05-05T06:35:21.865Z,7.55
2019-05-05T06:36:26.188Z,7.66
2019-05-05T06:37:30.250Z,7.78
2019-05-05T06:38:34.817Z,7.87
2019-05-05T06:39:38.884Z,7.97
2019-05-05T06:40:44.393Z,8.05
2019-05-05T06:41:47.386Z,8.07
2019-05-05T06:42:51.521Z,8.12
2019-05-05T06:43:55.728Z,8.18
2019-05-05T06:44:59.922Z,8.25
2019-05-05T06:46:04.248Z,8.31
2019-05-05T06:47:08.605Z,8.36
2019-05-05T06:48:13.575Z,8.42
2019-05-05T06:49:17.151Z,8.47
2019-05-05T06:50:21.462Z,8.52
2019-05-05T06:51:25.724Z,8.56
2019-05-05T06:52:41.966Z,8.59
2019-05-05T06:53:34.322Z,8.61
2019-05-05T06:54:38.422Z,8.62
2019-05-05T06:55:44.447Z,8.63
2019-05-05T06:56:47.054Z,8.67
2019-05-05T06:57:51.339Z,8.72
2019-05-05T06:58:55.471Z,8.77
2019-05-05T06:59:59.744Z,8.80
2019-05-05T07:01:04.178Z,8.83
2019-05-05T07:02:08.326Z,8.85
2019-05-05T07:03:13.915Z,8.86
2019-05-05T07:04:16.758Z,8.85
2019-05-05T07:05:21.098Z,8.88
2019-05-05T07:06:25.459Z,8.88
2019-05-05T07:07:29.767Z,8.91
2019-05-05T07:08:34.724Z,8.94
2019-05-05T07:09:38.436Z,8.98
2019-05-05T07:10:44.254Z,9.05
2019-05-05T07:11:46.862Z,9.13
2019-05-05T07:12:51.171Z,9.21
2019-05-05T07:13:55.432Z,9.30
2019-05-05T07:14:59.761Z,9.39
2019-05-05T07:16:04.861Z,9.48
2019-05-05T07:17:08.401Z,9.57
2019-05-05T07:18:14.234Z,9.66
2019-05-05T07:19:17.099Z,9.76
2019-05-05T07:20:21.276Z,9.85
2019-05-05T07:21:25.729Z,9.95
2019-05-05T07:22:29.999Z,10.07
2019-05-05T07:23:34.325Z,10.18
2019-05-05T07:24:38.678Z,10.28
2019-05-05T07:25:45.689Z,10.37
2019-05-05T07:26:47.196Z,10.43
2019-05-05T07:27:51.525Z,10.47
2019-05-05T07:28:55.867Z,10.51
2019-05-05T07:30:00.094Z,10.55
2019-05-05T07:31:04.702Z,10.60
2019-05-05T07:32:08.787Z,10.66
2019-05-05T07:33:14.914Z,10.73
2019-05-05T07:34:17.401Z,10.81
2019-05-05T07:35:21.718Z,10.89
2019-05-05T07:36:26.024Z,10.97
2019-05-05T07:37:30.332Z,11.05
2019-05-05T07:38:34.654Z,11.13
2019-05-05T07:39:39.047Z,11.22
2019-05-05T07:40:43.921Z,11.31
2019-05-05T07:41:47.602Z,11.36
2019-05-05T07:42:53.972Z,11.41
2019-05-05T07:43:56.205Z,11.47
2019-05-05T07:45:00.493Z,11.50
2019-05-05T07:46:04.776Z,11.53
2019-05-05T07:47:09.193Z,11.56
2019-05-05T07:48:13.930Z,11.58
2019-05-05T07:49:17.914Z,11.62
2019-05-05T07:50:31.297Z,11.64
2019-05-05T07:51:26.446Z,11.65
2019-05-05T07:52:30.801Z,11.66
2019-05-05T07:53:35.121Z,11.71
2019-05-05T07:54:39.369Z,11.74
2019-05-05T07:55:43.795Z,11.77
2019-05-05T07:56:51.036Z,11.79
2019-05-05T07:57:54.475Z,11.82
2019-05-05T07:58:58.851Z,11.84
2019-05-05T08:00:05.254Z,11.85
2019-05-05T08:01:07.351Z,11.85
2019-05-05T08:02:11.801Z,11.86
2019-05-05T08:03:16.042Z,11.87
2019-05-05T08:04:20.304Z,11.89
2019-05-05T08:05:24.736Z,11.92
2019-05-05T08:06:29.013Z,11.94
2019-05-05T08:07:34.045Z,11.95
2019-05-05T08:08:37.666Z,11.97
2019-05-05T08:09:44.261Z,11.98
2019-05-05T08:10:46.360Z,12.01
2019-05-05T08:11:50.637Z,12.03
2019-05-05T08:12:54.956Z,12.04
2019-05-05T08:13:59.179Z,12.06
2019-05-05T08:15:04.321Z,12.04
2019-05-05T08:16:07.871Z,12.03
2019-05-05T08:17:12.046Z,12.00
2019-05-05T08:18:16.430Z,11.97
2019-05-05T08:19:20.765Z,11.96
2019-05-05T08:20:25.056Z,11.96
2019-05-05T08:21:29.430Z,11.96
2019-05-05T08:22:34.025Z,11.99
2019-05-05T08:23:38.050Z,12.04
2019-05-05T08:24:43.930Z,12.08
2019-05-05T08:25:46.562Z,12.14
2019-05-05T08:26:50.983Z,12.22
2019-05-05T08:27:55.358Z,12.28
2019-05-05T08:28:59.671Z,12.31
2019-05-05T08:30:05.272Z,12.31
2019-05-05T08:31:08.270Z,12.27
2019-05-05T08:32:13.574Z,12.20
2019-05-05T08:33:16.806Z,12.11
2019-05-05T08:34:21.075Z,12.01
2019-05-05T08:35:25.436Z,11.90
2019-05-05T08:36:29.715Z,11.80
2019-05-05T08:37:34.391Z,11.70
2019-05-05T08:38:38.265Z,11.63
2019-05-05T08:39:44.549Z,11.56
2019-05-05T08:40:46.837Z,11.47
2019-05-05T08:41:51.158Z,11.42
2019-05-05T08:42:55.440Z,11.37
2019-05-05T08:43:59.649Z,11.36
2019-05-05T08:45:04.672Z,11.32
2019-05-05T08:46:08.334Z,11.30
2019-05-05T08:47:13.899Z,11.29
2019-05-05T08:48:16.901Z,11.26
2019-05-05T08:49:21.204Z,11.26
2019-05-05T08:50:27.100Z,11.25
2019-05-05T08:51:29.833Z,11.21
2019-05-05T08:52:34.380Z,11.16
2019-05-05T08:53:45.080Z,11.12
2019-05-05T08:54:44.614Z,11.10
2019-05-05T08:55:47.005Z,11.07
2019-05-05T08:56:51.293Z,11.04
2019-05-05T08:57:55.586Z,11.00
2019-05-05T08:58:59.908Z,10.98
2019-05-05T09:00:04.910Z,11.02
2019-05-05T09:01:08.499Z,11.12
2019-05-05T09:02:14.786Z,11.26
2019-05-05T09:03:17.177Z,11.43
2019-05-05T09:04:21.375Z,11.62
2019-05-05T09:05:25.670Z,11.80
2019-05-05T09:06:30.029Z,11.94
2019-05-05T09:07:34.241Z,12.02
2019-05-05T09:08:38.598Z,12.07
2019-05-05T09:09:44.171Z,12.08
2019-05-05T09:10:47.402Z,12.09
2019-05-05T09:11:51.725Z,12.08
2019-05-05T09:12:56.016Z,12.05
2019-05-05T09:14:00.440Z,12.02
2019-05-05T09:15:04.579Z,11.95
2019-05-05T09:16:08.850Z,11.94
2019-05-05T09:17:13.686Z,11.99
2019-05-05T09:18:17.356Z,12.08
2019-05-05T09:19:23.818Z,12.08
2019-05-05T09:20:26.063Z,12.03
2019-05-05T09:21:30.446Z,12.00
2019-05-05T09:22:34.915Z,11.90
2019-05-05T09:23:38.783Z,11.84
2019-05-05T09:24:44.528Z,11.81
2019-05-05T09:25:47.616Z,11.84
2019-05-05T09:26:51.681Z,11.95
2019-05-05T09:27:56.030Z,12.07
2019-05-05T09:29:00.371Z,12.21
2019-05-05T09:30:04.751Z,12.35
2019-05-05T09:31:09.101Z,12.49
2019-05-05T09:32:13.994Z,12.61
2019-05-05T09:33:18.385Z,12.72
2019-05-05T09:34:24.025Z,12.79
2019-05-05T09:35:26.383Z,12.83
2019-05-05T09:36:30.846Z,12.81
2019-05-05T09:37:35.178Z,12.81
2019-05-05T09:38:39.454Z,12.83
2019-05-05T09:39:43.898Z,12.90
2019-05-05T09:40:48.156Z,12.99
2019-05-05T09:41:53.616Z,13.10
2019-05-05T09:42:56.782Z,13.17
2019-05-05T09:44:01.136Z,13.18
2019-05-05T09:45:05.493Z,13.14
2019-05-05T09:46:09.766Z,13.11
2019-05-05T09:47:14.097Z,13.05
2019-05-05T09:48:18.530Z,12.93
2019-05-05T09:49:24.598Z,12.85
2019-05-05T09:50:27.152Z,12.84
2019-05-05T09:51:31.491Z,12.91
2019-05-05T09:52:35.814Z,13.01
2019-05-05T09:53:40.148Z,13.13
2019-05-05T09:54:44.496Z,13.26
2019-05-05T09:55:48.867Z,13.39
2019-05-05T09:56:53.747Z,13.51
2019-05-05T09:57:57.556Z,13.62
2019-05-05T09:59:03.743Z,13.65
2019-05-05T10:00:06.337Z,13.62
2019-05-05T10:01:10.635Z,13.54
2019-05-05T10:02:14.974Z,13.42
2019-05-05T10:03:19.337Z,13.33
2019-05-05T10:04:24.290Z,13.22
2019-05-05T10:05:27.962Z,13.12
2019-05-05T10:06:33.710Z,13.03
2019-05-05T10:07:36.706Z,12.97
2019-05-05T10:08:40.968Z,12.93
2019-05-05T10:09:45.140Z,12.85
2019-05-05T10:10:49.549Z,12.80
2019-05-05T10:11:54.151Z,12.82
2019-05-05T10:12:58.128Z,12.80
2019-05-05T10:14:03.969Z,12.74
2019-05-05T10:15:07.648Z,12.72
2019-05-05T10:16:11.252Z,12.73
2019-05-05T10:17:15.520Z,12.78
2019-05-05T10:18:19.886Z,12.84
2019-05-05T10:19:24.416Z,12.91
2019-05-05T10:20:28.457Z,12.98
2019-05-05T10:21:33.904Z,13.05
2019-05-05T10:22:37.199Z,13.14
2019-05-05T10:23:43.498Z,13.27
2019-05-05T10:24:45.757Z,13.50
2019-05-05T10:25:50.147Z,13.74
2019-05-05T10:26:54.425Z,13.94
2019-05-05T10:27:58.772Z,14.07
2019-05-05T10:29:04.237Z,14.16
2019-05-05T10:30:10.541Z,14.22
2019-05-05T10:31:13.679Z,14.27
2019-05-05T10:32:16.267Z,14.32
2019-05-05T10:33:20.533Z,14.38
2019-05-05T10:34:24.944Z,14.41
2019-05-05T10:35:29.249Z,14.45
2019-05-05T10:36:33.792Z,14.48
2019-05-05T10:37:37.905Z,14.52
2019-05-05T10:38:44.289Z,14.57
2019-05-05T10:39:46.670Z,14.64
2019-05-05T10:40:51.094Z,14.74
2019-05-05T10:41:56.142Z,14.90
2019-05-05T10:42:59.807Z,15.06
2019-05-05T10:44:04.168Z,15.18
2019-05-05T10:45:08.515Z,15.24
2019-05-05T10:46:14.354Z,15.20
2019-05-05T10:47:17.247Z,15.12
2019-05-05T10:48:23.480Z,14.93
2019-05-05T10:49:25.905Z,14.78
2019-05-05T10:50:30.195Z,14.65
2019-05-05T10:51:34.704Z,14.58
2019-05-05T10:52:38.877Z,14.55
2019-05-05T10:53:43.849Z,14.53
2019-05-05T10:54:47.586Z,14.55
2019-05-05T10:55:53.805Z,14.60
2019-05-05T10:56:56.279Z,14.62
2019-05-05T10:58:00.644Z,14.61
2019-05-05T10:59:05.018Z,14.53
2019-05-05T11:00:12.680Z,14.48
2019-05-05T11:01:14.481Z,14.49
2019-05-05T11:02:18.175Z,14.54
2019-05-05T11:03:23.741Z,14.60
2019-05-05T11:04:26.876Z,14.67
2019-05-05T11:05:31.240Z,14.75
2019-05-05T11:06:35.634Z,14.80
2019-05-05T11:07:39.966Z,14.84
2019-05-05T11:08:45.175Z,14.91
2019-05-05T11:09:51.716Z,14.97
2019-05-05T11:10:55.078Z,15.00
2019-05-05T11:11:59.568Z,15.03
2019-05-05T11:13:03.912Z,15.06
2019-05-05T11:14:08.045Z,15.07
2019-05-05T11:15:14.226Z,15.04
2019-05-05T11:16:16.749Z,15.08
2019-05-05T11:17:21.153Z,15.13
2019-05-05T11:18:25.593Z,15.20
2019-05-05T11:19:29.830Z,15.27
2019-05-05T11:20:34.326Z,15.34
2019-05-05T11:21:38.688Z,15.38
2019-05-05T11:22:43.821Z,15.44
2019-05-05T11:23:47.389Z,15.51
2019-05-05T11:24:58.224Z,15.61
2019-05-05T11:25:56.140Z,15.73
2019-05-05T11:27:00.520Z,15.85
2019-05-05T11:28:04.886Z,15.97
2019-05-05T11:29:09.183Z,16.10
2019-05-05T11:30:14.317Z,16.21
2019-05-05T11:31:17.957Z,16.34
2019-05-05T11:32:24.138Z,16.46
2019-05-05T11:33:26.787Z,16.56
2019-05-05T11:34:31.117Z,16.67
2019-05-05T11:35:35.438Z,16.77
2019-05-05T11:36:39.888Z,16.87
2019-05-05T11:37:44.280Z,17.01
2019-05-05T11:38:48.671Z,17.11
2019-05-05T11:39:53.649Z,17.18
2019-05-05T11:40:57.538Z,17.26
2019-05-05T11:42:04.223Z,17.38
2019-05-05T11:43:06.297Z,17.48
2019-05-05T11:44:10.624Z,17.65
2019-05-05T11:45:15.030Z,17.68
2019-05-05T11:46:19.369Z,17.67
2019-05-05T11:47:24.551Z,17.71
2019-05-05T11:48:28.033Z,17.64
2019-05-05T11:49:33.712Z,17.58
2019-05-05T11:50:36.734Z,17.48
2019-05-05T11:51:41.171Z,17.47
2019-05-05T11:52:45.555Z,17.64
2019-05-05T11:53:49.961Z,17.78
2019-05-05T11:54:55.582Z,17.92
2019-05-05T11:55:58.656Z,17.93
2019-05-05T11:57:04.390Z,17.87
2019-05-05T11:58:07.526Z,17.91
2019-05-05T11:59:14.259Z,17.78
2019-05-05T12:00:16.310Z,17.60
2019-05-05T12:01:24.291Z,17.54
2019-05-05T12:02:26.932Z,17.69
2019-05-05T12:03:31.255Z,17.89
2019-05-05T12:04:35.593Z,18.05
2019-05-05T12:05:39.930Z,18.29
2019-05-05T12:06:44.467Z,18.44
2019-05-05T12:07:48.601Z,18.62
2019-05-05T12:08:52.972Z,18.75
2019-05-05T12:09:57.318Z,18.61
2019-05-05T12:11:01.742Z,18.64
2019-05-05T12:12:06.013Z,18.72
2019-05-05T12:13:10.368Z,18.91
2019-05-05T12:14:14.700Z,19.11
2019-05-05T12:15:19.138Z,19.17
2019-05-05T12:16:23.985Z,19.25
2019-05-05T12:17:27.818Z,19.24
2019-05-05T12:18:34.052Z,19.32
2019-05-05T12:19:36.540Z,19.33
2019-05-05T12:20:40.846Z,19.28
2019-05-05T12:21:45.158Z,19.32
2019-05-05T12:22:49.628Z,19.20
2019-05-05T12:23:54.657Z,19.12
2019-05-05T12:24:58.335Z,19.07
2019-05-05T12:26:04.656Z,19.16
2019-05-05T12:27:07.080Z,19.30
2019-05-05T12:28:13.627Z,19.45
2019-05-05T12:29:15.778Z,19.49
2019-05-05T12:30:20.099Z,19.57
2019-05-05T12:31:24.869Z,19.65
2019-05-05T12:32:28.756Z,19.71
2019-05-05T12:33:33.622Z,19.73
2019-05-05T12:34:37.567Z,19.75
2019-05-05T12:35:41.880Z,19.70
2019-05-05T12:36:46.251Z,19.66
2019-05-05T12:37:50.710Z,19.56
2019-05-05T12:38:55.038Z,19.34
2019-05-05T12:39:59.426Z,19.31
2019-05-05T12:41:04.418Z,19.30
2019-05-05T12:42:08.086Z,19.34
2019-05-05T12:43:14.209Z,19.50
2019-05-05T12:44:16.913Z,19.69
2019-05-05T12:45:21.228Z,19.84
2019-05-05T12:46:25.564Z,19.92
2019-05-05T12:47:29.914Z,19.89
2019-05-05T12:48:34.537Z,19.90
2019-05-05T12:49:38.638Z,19.98
2019-05-05T12:50:44.305Z,19.94
2019-05-05T12:51:47.389Z,19.81
2019-05-05T12:52:51.686Z,19.84
2019-05-05T12:53:56.125Z,19.80
2019-05-05T12:55:04.355Z,19.50
2019-05-05T12:56:04.783Z,19.40
2019-05-05T12:57:09.094Z,19.34
2019-05-05T12:58:13.956Z,19.34
2019-05-05T12:59:17.963Z,19.27
2019-05-05T13:00:22.259Z,19.33
2019-05-05T13:01:26.721Z,19.36
2019-05-05T13:02:31.038Z,19.42
2019-05-05T13:03:35.424Z,19.47
2019-05-05T13:04:39.801Z,19.30
2019-05-05T13:05:44.644Z,19.27
2019-05-05T13:06:48.409Z,19.24
2019-05-05T13:07:52.789Z,19.21
2019-05-05T13:08:57.180Z,19.26
2019-05-05T13:10:01.474Z,19.34
2019-05-05T13:11:05.842Z,19.37
2019-05-05T13:12:10.255Z,19.09
2019-05-05T13:13:14.561Z,18.89
2019-05-05T13:14:18.995Z,18.79
2019-05-05T13:15:24.746Z,18.77
2019-05-05T13:16:27.697Z,18.75
2019-05-05T13:17:33.891Z,18.72
2019-05-05T13:18:36.467Z,18.47
2019-05-05T13:19:40.716Z,18.34
2019-05-05T13:20:45.154Z,18.25
2019-05-05T13:21:49.446Z,18.22
2019-05-05T13:22:54.067Z,18.15
2019-05-05T13:23:58.146Z,17.95
2019-05-05T13:25:04.472Z,17.73
2019-05-05T13:26:06.736Z,17.59
2019-05-05T13:27:12.045Z,17.52
2019-05-05T13:28:15.455Z,17.50
2019-05-05T13:29:19.846Z,17.53
2019-05-05T13:30:24.118Z,17.59
2019-05-05T13:31:28.455Z,17.67
2019-05-05T13:32:33.611Z,17.73
2019-05-05T13:33:37.398Z,17.77
2019-05-05T13:34:41.478Z,17.80
2019-05-05T13:35:45.847Z,17.76
2019-05-05T13:36:50.182Z,17.59
2019-05-05T13:37:55.043Z,17.43
2019-05-05T13:38:58.862Z,17.36
2019-05-05T13:40:04.457Z,17.34
2019-05-05T13:41:07.551Z,17.34
2019-05-05T13:42:13.660Z,17.25
2019-05-05T13:43:16.159Z,17.24
2019-05-05T13:44:20.552Z,17.23
2019-05-05T13:45:24.842Z,17.20
2019-05-05T13:46:29.193Z,17.17
2019-05-05T13:47:34.369Z,17.13
2019-05-05T13:48:37.943Z,17.07
2019-05-05T13:49:43.691Z,16.99
2019-05-05T13:50:46.507Z,16.94
2019-05-05T13:51:50.940Z,16.90
2019-05-05T13:52:55.233Z,16.86
2019-05-05T13:53:59.501Z,16.81
2019-05-05T13:55:03.850Z,16.77
2019-05-05T13:56:12.083Z,16.74
2019-05-05T13:57:14.362Z,16.71
2019-05-05T13:58:16.882Z,16.68
2019-05-05T13:59:21.186Z,16.65
2019-05-05T14:00:25.706Z,16.60
2019-05-05T14:01:29.858Z,16.56
2019-05-05T14:02:34.240Z,16.53